Time;durP1;ratioP1;P1;durP2;ratioP2;P2;SDS_P1;SDS_P2;PMS_P1;PMS_P2;Temp;Humidity;BMP_temperature;BMP_pressure;BME280_temperature;BME280_humidity;BME280_pressure;Samples;Min_cycle;Max_cycle;Signal;HPM_P1;HPM_P2
2022/11/18 00:02:00;;;;;;;61.87;33.40;;;;;;;8.49;98.51;93812.38;5072946;28;20174;-74
2022/11/18 00:04:25;;;;;;;69.87;35.17;;;;;;;8.52;98.17;93810.09;5072983;28;20182;-73
2022/11/18 00:06:51;;;;;;;68.40;36.40;;;;;;;8.52;98.33;93811.94;5072824;28;20340;-74
2022/11/18 00:09:16;;;;;;;67.20;34.30;;;;;;;8.47;97.95;93809.19;5072453;28;20230;-74
2022/11/18 00:14:26;;;;;;;65.67;32.33;;;;;;;8.42;97.59;93812.47;5072647;28;20181;-74
2022/11/18 00:16:53;;;;;;;72.80;36.97;;;;;;;8.40;97.52;93814.50;5086662;28;20173;-73
2022/11/18 00:19:20;;;;;;;55.92;31.98;;;;;;;8.33;96.77;93811.19;5092558;28;20417;-74
2022/11/18 00:21:46;;;;;;;51.23;26.97;;;;;;;8.09;97.12;93775.38;5092936;28;20178;-74
2022/11/18 00:24:11;;;;;;;60.70;29.43;;;;;;;8.20;97.63;93799.03;5092769;28;20724;-74
2022/11/18 00:26:36;;;;;;;52.83;27.90;;;;;;;8.30;97.32;93809.00;5092698;28;20659;-74
2022/11/18 00:29:03;;;;;;;50.83;25.43;;;;;;;8.26;97.08;93807.81;5092858;28;20178;-74
2022/11/18 00:31:29;;;;;;;47.93;26.23;;;;;;;8.28;96.97;93814.44;5092748;28;20197;-74
2022/11/18 00:33:54;;;;;;;51.27;25.27;;;;;;;8.25;97.43;93814.88;5092684;28;20273;-74
2022/11/18 00:36:20;;;;;;;58.57;29.17;;;;;;;8.23;97.44;93808.25;5084622;28;20179;-74
2022/11/18 00:38:45;;;;;;;46.70;25.10;;;;;;;8.25;97.28;93814.09;5072028;28;20210;-74
2022/11/18 00:41:13;;;;;;;53.37;27.23;;;;;;;8.23;97.10;93811.69;5072104;28;20206;-74
2022/11/18 00:43:40;;;;;;;48.70;25.73;;;;;;;8.25;97.33;93808.84;5089753;28;20173;-74
2022/11/18 00:46:09;;;;;;;47.50;25.87;;;;;;;8.28;97.26;93811.03;5092495;28;20173;-75
2022/11/18 00:48:36;;;;;;;50.97;27.60;;;;;;;8.31;96.82;93815.84;5092410;28;20180;-73
2022/11/18 00:51:12;;;;;;;47.67;26.00;;;;;;;8.24;96.28;93799.38;5092418;28;20578;-74
2022/11/18 00:53:37;;;;;;;62.57;31.17;;;;;;;8.26;96.10;93816.50;5084523;28;20174;-74
2022/11/18 00:56:03;;;;;;;59.97;30.57;;;;;;;8.27;96.52;93809.44;5071860;28;20185;-74
2022/11/18 00:58:29;;;;;;;66.73;35.63;;;;;;;8.07;96.10;93807.06;5052759;28;20419;-73
2022/11/18 01:00:54;;;;;;;58.60;30.10;;;;;;;8.05;96.97;93811.72;5071920;28;20205;-73
2022/11/18 01:03:20;;;;;;;55.10;29.40;;;;;;;8.07;97.35;93807.06;5071606;28;20644;-74
2022/11/18 01:05:45;;;;;;;51.53;25.47;;;;;;;7.90;96.68;93775.41;5053726;28;20286;-73
2022/11/18 01:08:12;;;;;;;49.07;26.93;;;;;;;8.05;96.93;93811.72;5071602;28;20640;-73
2022/11/18 01:10:39;;;;;;;52.37;25.77;;;;;;;8.04;96.45;93812.75;5071401;28;20218;-73
2022/11/18 01:13:18;;;;;;;42.60;22.23;;;;;;;8.05;96.41;93810.91;5071561;28;20197;-73
2022/11/18 01:15:48;;;;;;;31.53;18.83;;;;;;;8.01;96.47;93809.75;5071450;28;20178;-73
2022/11/18 01:18:14;;;;;;;38.83;19.37;;;;;;;8.00;96.25;93816.03;5071547;28;20178;-74
2022/11/18 01:20:40;;;;;;;29.50;18.33;;;;;;;7.97;96.72;93812.81;5071758;28;20179;-74
2022/11/18 01:23:05;;;;;;;39.20;20.27;;;;;;;7.69;96.28;93768.03;5071491;28;20190;-74
2022/11/18 01:25:31;;;;;;;31.20;17.97;;;;;;;7.93;96.46;93809.06;5074178;28;20162;-74
2022/11/18 01:27:56;;;;;;;30.97;18.77;;;;;;;7.71;96.51;93773.03;5091686;28;20575;-74
2022/11/18 01:30:22;;;;;;;34.80;18.17;;;;;;;7.94;95.96;93815.09;5091565;28;20351;-74
2022/11/18 01:32:47;;;;;;;33.67;19.60;;;;;;;7.94;96.01;93815.09;5091828;28;20230;-74
2022/11/18 01:35:13;;;;;;;33.53;18.57;;;;;;;7.93;96.07;93814.28;5091503;28;20181;-74
2022/11/18 01:37:38;;;;;;;38.10;21.17;;;;;;;7.97;96.42;93815.44;5091458;28;20217;-74
2022/11/18 01:40:06;;;;;;;43.33;21.60;;;;;;;7.99;96.90;93812.59;5091491;28;20177;-74
2022/11/18 01:42:32;;;;;;;36.83;20.53;;;;;;;8.02;96.69;93812.16;5091147;28;20184;-74
2022/11/18 01:45:03;;;;;;;34.23;20.07;;;;;;;7.99;96.88;93812.59;5091217;28;20177;-74
2022/11/18 01:47:39;;;;;;;42.13;22.90;;;;;;;7.86;95.71;93792.63;5091276;28;20188;-75
2022/11/18 01:50:05;;;;;;;40.20;23.63;;;;;;;7.96;95.87;93799.94;5091356;28;20205;-75
2022/11/18 01:52:33;;;;;;;39.13;22.70;;;;;;;7.95;96.19;93821.94;5091186;28;20213;-74
2022/11/18 01:55:06;;;;;;;42.03;23.37;;;;;;;7.94;96.72;93815.09;5091187;28;20204;-74
2022/11/18 01:57:32;;;;;;;36.10;20.47;;;;;;;7.89;96.26;93807.88;5082436;28;20182;-75
2022/11/18 02:00:02;;;;;;;36.40;19.97;;;;;;;7.87;96.72;93809.13;5070785;28;20178;-74
2022/11/18 02:02:31;;;;;;;36.80;20.58;;;;;;;7.80;97.17;93803.94;5070209;28;20414;-74
2022/11/18 02:04:57;;;;;;;33.63;18.73;;;;;;;7.77;97.88;93809.66;5070697;28;20189;-75
2022/11/18 02:07:24;;;;;;;31.67;16.17;;;;;;;7.74;97.91;93796.97;5070912;28;20178;-75
2022/11/18 02:09:51;;;;;;;26.80;15.33;;;;;;;7.85;97.74;93814.59;5070457;28;20228;-74
2022/11/18 02:12:18;;;;;;;25.63;15.00;;;;;;;7.91;97.51;93805.84;5070713;28;20262;-74
2022/11/18 02:14:45;;;;;;;22.33;13.70;;;;;;;7.96;97.57;93813.03;5070444;28;20170;-74
2022/11/18 02:17:25;;;;;;;27.63;14.17;;;;;;;7.99;97.73;93806.56;5070576;28;20182;-74
2022/11/18 02:20:15;;;;;;;26.47;13.77;;;;;;;7.99;97.55;93806.56;5070707;28;20179;-74
2022/11/18 02:23:16;;;;;;;29.40;16.08;;;;;;;7.93;98.28;93813.50;5069737;28;20413;-74
2022/11/18 02:26:08;;;;;;;21.40;14.03;;;;;;;7.96;97.83;93805.97;5056112;28;20194;-73
2022/11/18 02:28:46;;;;;;;25.07;13.50;;;;;;;7.95;97.27;93807.03;5070416;28;20261;-73
2022/11/18 02:31:22;;;;;;;29.25;16.90;;;;;;;7.88;98.20;93806.28;5069107;28;20429;-73
2022/11/18 02:33:54;;;;;;;27.47;16.97;;;;;;;7.69;98.51;93789.00;5070402;28;20184;-74
2022/11/18 02:36:46;;;;;;;21.03;14.00;;;;;;;7.83;98.47;93793.03;5070377;28;20170;-73
2022/11/18 02:39:20;;;;;;;39.50;23.13;;;;;;;7.88;97.48;93792.38;5070269;28;20285;-73
2022/11/18 02:41:48;;;;;;;39.77;23.73;;;;;;;7.83;97.74;93793.03;5069985;28;20202;-74
2022/11/18 02:44:16;;;;;;;39.38;24.73;;;;;;;7.83;97.80;93802.72;5069568;28;20410;-73
2022/11/18 02:46:46;;;;;;;38.60;21.47;;;;;;;7.75;97.26;93790.72;5070251;28;20262;-74
2022/11/18 02:49:23;;;;;;;37.43;23.27;;;;;;;7.82;97.03;93803.75;5069953;28;20569;-74
2022/11/18 02:51:50;;;;;;;37.87;22.67;;;;;;;7.82;97.16;93793.25;5070064;28;20222;-73
2022/11/18 02:54:19;;;;;;;42.35;25.88;;;;;;;7.64;96.91;93773.13;5069642;28;20413;-73
2022/11/18 02:56:46;;;;;;;43.13;23.90;;;;;;;7.78;97.34;93798.16;5082944;28;20173;-73
2022/11/18 02:59:17;;;;;;;41.00;22.67;;;;;;;7.66;97.06;93796.47;5090040;28;20642;-73
2022/11/18 03:01:42;;;;;;;38.95;23.35;;;;;;;7.66;96.80;93810.38;5093633;28;20464;-73
2022/11/18 03:04:07;;;;;;;39.03;25.85;;;;;;;7.44;98.35;93804.75;5093117;28;20415;-73
2022/11/18 03:06:39;;;;;;;45.47;28.40;;;;;;;7.37;98.95;93800.59;5093405;28;20414;-73
2022/11/18 03:09:17;;;;;;;46.20;29.17;;;;;;;7.50;98.27;93805.72;5094007;28;20178;-73
2022/11/18 03:11:55;;;;;;;55.00;31.17;;;;;;;7.48;98.05;93799.88;5094053;28;20227;-74
2022/11/18 03:14:24;;;;;;;46.40;29.25;;;;;;;7.57;96.96;93814.28;5092963;28;20412;-74
2022/11/18 03:16:55;;;;;;;46.47;29.17;;;;;;;7.57;97.52;93804.63;5094145;28;20260;-73
2022/11/18 03:19:20;;;;;;;48.25;29.77;;;;;;;7.60;97.34;93802.59;5093520;28;20484;-73
2022/11/18 03:22:12;;;;;;;40.03;25.10;;;;;;;7.62;97.23;93797.91;5093933;28;20641;-73
2022/11/18 03:24:44;;;;;;;43.80;25.70;;;;;;;7.64;96.94;93801.13;5094012;28;20646;-73
2022/11/18 03:27:17;;;;;;;45.23;24.87;;;;;;;7.63;97.84;93799.53;5093871;28;20207;-73
2022/11/18 03:29:57;;;;;;;48.03;25.90;;;;;;;7.70;97.41;93805.47;5093917;28;20216;-73
2022/11/18 03:32:28;;;;;;;45.97;26.03;;;;;;;7.59;98.20;93786.09;5093679;28;20186;-73
2022/11/18 03:35:02;;;;;;;52.07;28.60;;;;;;;7.69;98.87;93794.22;5093739;28;20257;-73
2022/11/18 03:37:30;;;;;;;55.90;32.23;;;;;;;7.83;98.54;93803.53;5093659;28;20173;-74
2022/11/18 03:40:02;;;;;;;47.60;27.43;;;;;;;7.90;98.28;93792.97;5093691;28;20651;-73
2022/11/18 03:42:36;;;;;;;43.87;25.83;;;;;;;7.92;98.49;93799.59;5093686;28;20842;-73
2022/11/18 03:45:10;;;;;;;48.50;30.05;;;;;;;7.88;98.72;93795.78;5092400;28;20472;-73
2022/11/18 03:47:41;;;;;;;41.00;23.77;;;;;;;7.87;98.50;93796.81;5093468;28;20189;-73
2022/11/18 03:50:12;;;;;;;41.27;23.73;;;;;;;7.94;99.12;93783.66;5093490;28;20186;-73
2022/11/18 03:52:38;;;;;;;39.70;21.97;;;;;;;7.67;98.64;93758.78;5093647;28;20208;-73
2022/11/18 03:55:11;;;;;;;48.17;28.50;;;;;;;7.70;99.32;93784.53;5093029;28;20527;-73
2022/11/18 03:57:47;;;;;;;52.67;32.33;;;;;;;7.67;100.00;93771.88;5092007;28;20465;-73
2022/11/18 04:00:15;;;;;;;42.08;26.05;;;;;;;7.74;100.00;93751.66;5092316;28;20416;-74
2022/11/18 04:02:41;;;;;;;45.37;25.33;;;;;;;7.94;100.00;93775.78;5087628;28;20171;-73
2022/11/18 04:05:09;;;;;;;47.23;26.57;;;;;;;7.99;99.89;93778.53;5072958;28;20185;-73
2022/11/18 04:07:56;;;;;;;47.23;25.83;;;;;;;8.05;99.78;93776.84;5072960;28;20741;-73
2022/11/18 04:10:28;;;;;;;42.23;23.80;;;;;;;8.15;99.50;93782.34;5072448;28;20230;-73
2022/11/18 04:13:01;;;;;;;48.37;25.77;;;;;;;8.16;99.58;93778.72;5071299;28;20532;-74
2022/11/18 04:15:29;;;;;;;50.50;24.83;;;;;;;8.24;99.25;93779.19;5072771;28;20178;-73
2022/11/18 04:17:55;;;;;;;52.73;26.83;;;;;;;8.31;99.14;93787.81;5072691;28;20182;-74
2022/11/18 04:20:22;;;;;;;63.80;27.90;;;;;;;8.13;99.25;93747.72;5069097;28;20478;-73
2022/11/18 04:22:47;;;;;;;66.40;25.63;;;;;;;8.42;99.19;93775.75;5053753;28;20217;-73
2022/11/18 04:25:14;;;;;;;54.27;24.23;;;;;;;8.42;99.27;93788.06;5072669;28;20243;-72
2022/11/18 04:27:39;;;;;;;67.53;24.50;;;;;;;8.47;99.83;93796.88;5072645;28;20631;-72
2022/11/18 04:30:05;;;;;;;52.20;23.37;;;;;;;8.44;99.83;93786.03;5072547;28;20269;-72
2022/11/18 04:32:31;;;;;;;49.30;20.47;;;;;;;8.45;100.00;93788.44;5072691;28;20182;-73
2022/11/18 04:34:57;;;;;;;52.73;23.33;;;;;;;8.39;100.00;93791.16;5070562;28;20578;-73
2022/11/18 04:37:23;;;;;;;45.37;20.63;;;;;;;8.27;100.00;93785.84;5063551;28;20186;-75
2022/11/18 04:39:48;;;;;;;48.37;21.17;;;;;;;8.45;100.00;93804.16;5061561;28;20182;-74
2022/11/18 04:42:14;;;;;;;45.13;20.47;;;;;;;8.28;100.00;93774.31;5060899;28;20220;-74
2022/11/18 04:44:39;;;;;;;45.33;20.43;;;;;;;8.51;100.00;93813.75;5064108;28;20659;-75
2022/11/18 04:47:06;;;;;;;44.03;20.77;;;;;;;8.47;100.00;93799.50;5069632;28;20577;-74
2022/11/18 04:49:32;;;;;;;54.33;19.47;;;;;;;8.40;100.00;93783.03;5072072;28;20217;-75
2022/11/18 04:51:58;;;;;;;43.87;17.33;;;;;;;8.51;100.00;93812.94;5072146;28;20209;-75
2022/11/18 04:54:25;;;;;;;49.83;18.50;;;;;;;8.53;100.00;93809.09;5072078;28;20182;-75
2022/11/18 04:56:51;;;;;;;51.40;18.93;;;;;;;8.50;100.00;93813.97;5072270;28;20603;-75
2022/11/18 04:59:20;;;;;;;38.80;17.27;;;;;;;8.51;100.00;93816.38;5071907;28;20251;-74
2022/11/18 05:01:45;;;;;;;43.23;17.53;;;;;;;8.36;100.00;93781.91;5071880;28;20558;-75
2022/11/18 05:04:13;;;;;;;40.70;17.73;;;;;;;8.52;100.00;93812.72;5069444;28;20190;-75
2022/11/18 05:06:39;;;;;;;65.33;20.03;;;;;;;8.42;100.00;93788.88;5071957;28;20249;-74
2022/11/18 05:09:04;;;;;;;53.27;19.40;;;;;;;8.46;100.00;93807.59;5071727;28;20269;-74
2022/11/18 05:14:15;;;;;;;50.43;22.57;;;;;;;8.41;100.00;93800.38;5072130;28;20251;-75
2022/11/18 05:16:41;;;;;;;60.80;22.23;;;;;;;8.49;100.00;93810.53;5071726;28;20171;-75
2022/11/18 05:19:06;;;;;;;52.13;23.20;;;;;;;8.45;100.00;93817.28;5070833;28;20182;-72
2022/11/18 05:21:32;;;;;;;99.13;28.38;;;;;;;8.38;100.00;93819.19;5080419;28;20417;-74
2022/11/18 05:23:58;;;;;;;134.70;21.27;;;;;;;8.31;100.00;93816.63;5070894;28;20293;-73
2022/11/18 05:26:24;;;;;;;150.03;22.63;;;;;;;8.25;100.00;93816.72;5071462;28;20647;-73
2022/11/18 05:28:50;;;;;;;221.23;28.67;;;;;;;8.02;100.00;93811.38;5070523;28;20475;-73
2022/11/18 05:31:16;;;;;;;127.17;21.93;;;;;;;8.06;100.00;93815.94;5071259;28;20208;-73
2022/11/18 05:33:42;;;;;;;105.97;22.53;;;;;;;7.96;100.00;93808.59;5070687;28;20175;-74
2022/11/18 05:36:14;;;;;;;70.30;21.30;;;;;;;7.97;100.00;93818.06;5070400;28;20251;-74
2022/11/18 05:38:39;;;;;;;108.70;24.77;;;;;;;8.03;100.00;93808.53;5070750;28;20667;-73
2022/11/18 05:41:06;;;;;;;183.25;28.15;;;;;;;7.92;100.00;93820.53;5069571;28;20447;-73
2022/11/18 05:43:32;;;;;;;302.15;29.85;;;;;;;7.91;100.00;93821.56;5070185;28;20444;-73
2022/11/18 05:45:58;;;;;;;76.40;21.17;;;;;;;7.85;100.00;93817.22;5070918;28;20186;-73
2022/11/18 05:48:24;;;;;;;170.95;24.38;;;;;;;7.92;100.00;93804.81;5070555;28;20986;-73
2022/11/18 05:50:52;;;;;;;89.07;22.50;;;;;;;8.03;100.00;93810.34;5070960;28;20283;-74
2022/11/18 05:53:20;;;;;;;49.20;20.50;;;;;;;8.19;100.00;93820.22;5071039;28;20566;-73
2022/11/18 05:56:05;;;;;;;146.43;24.77;;;;;;;8.20;100.00;93813.97;5066118;28;20421;-73
2022/11/18 05:58:30;;;;;;;51.17;19.33;;;;;;;8.28;100.00;93814.44;5052195;28;20189;-73
2022/11/18 06:01:01;;;;;;;62.10;20.07;;;;;;;8.40;100.00;93816.31;5070915;28;20562;-73
2022/11/18 06:03:30;;;;;;;72.83;21.00;;;;;;;8.43;100.00;93810.66;5070769;28;20179;-74
2022/11/18 06:05:58;;;;;;;49.33;19.80;;;;;;;8.54;100.00;93813.31;5070821;28;20606;-74
2022/11/18 06:08:29;;;;;;;42.57;18.10;;;;;;;8.58;100.00;93813.66;5070524;28;20244;-74
2022/11/18 06:10:55;;;;;;;32.73;17.07;;;;;;;8.65;100.00;93820.41;5070450;28;20776;-73
2022/11/18 06:13:40;;;;;;;87.93;22.10;;;;;;;8.76;100.00;93823.28;5087296;28;20189;-74
2022/11/18 06:16:06;;;;;;;32.40;16.73;;;;;;;8.78;100.00;93818.59;5090947;28;20188;-74
2022/11/18 06:18:33;;;;;;;57.70;20.27;;;;;;;8.86;100.00;93819.09;5090651;28;20185;-74
2022/11/18 06:21:04;;;;;;;98.90;16.93;;;;;;;8.70;100.00;93811.88;5090703;28;20614;-73
2022/11/18 06:23:40;;;;;;;113.30;15.07;;;;;;;8.66;100.00;93803.63;5090605;28;20189;-74
2022/11/18 06:26:06;;;;;;;102.00;14.80;;;;;;;8.59;100.00;93812.63;5071480;28;20186;-74
2022/11/18 06:28:32;;;;;;;114.20;17.13;;;;;;;8.61;100.00;93797.47;5068657;28;20189;-74
2022/11/18 06:30:58;;;;;;;37.27;14.80;;;;;;;8.71;100.00;93800.34;5069837;28;20202;-74
2022/11/18 06:33:23;;;;;;;88.43;15.07;;;;;;;8.80;100.00;93813.94;5069633;28;20666;-73
2022/11/18 06:35:48;;;;;;;101.70;16.73;;;;;;;8.80;100.00;93806.06;5069429;28;20178;-74
2022/11/18 06:38:14;;;;;;;104.83;16.53;;;;;;;8.59;100.00;93778.53;5070105;28;20292;-74
2022/11/18 06:40:43;;;;;;;68.40;16.73;;;;;;;8.66;100.00;93805.47;5051721;28;20308;-73
2022/11/18 06:48:41;;;;;;;120.57;18.63;;;;;;;8.60;100.00;93796.66;5070074;28;20189;-73
2022/11/18 06:51:07;;;;;;;80.80;15.60;;;;;;;8.67;100.00;93797.38;5070078;28;20198;-74
2022/11/18 06:53:33;;;;;;;135.90;18.53;;;;;;;8.59;100.00;93805.56;5069820;28;20182;-74
2022/11/18 06:56:03;;;;;;;99.00;18.50;;;;;;;8.35;100.00;93777.69;5069805;28;20235;-74
2022/11/18 06:58:28;;;;;;;97.90;19.00;;;;;;;8.54;100.00;93796.78;5069886;28;20185;-75
2022/11/18 07:00:54;;;;;;;334.60;267.50;;;;;;;8.59;100.00;93802.13;5069981;28;20295;-73
2022/11/18 07:03:19;;;;;;;459.37;412.97;;;;;;;8.66;100.00;93810.69;5069809;28;20190;-74
2022/11/18 07:05:45;;;;;;;334.37;304.43;;;;;;;8.75;100.00;93817.22;5070038;28;20269;-74
2022/11/18 07:08:10;;;;;;;257.47;234.07;;;;;;;8.92;100.00;93806.88;5070082;28;20189;-74
2022/11/18 07:10:35;;;;;;;194.60;150.90;;;;;;;9.04;100.00;93810.31;5069781;28;20226;-74
2022/11/18 07:13:01;;;;;;;218.47;201.03;;;;;;;9.04;100.00;93799.81;5070053;28;20591;-75
2022/11/18 07:15:26;;;;;;;1427.47;999.90;;;;;;;8.94;100.00;93795.13;5069834;28;20273;-75
2022/11/18 07:17:51;;;;;;;1233.70;976.00;;;;;;;9.04;100.00;93786.69;5069824;28;20178;-74
2022/11/18 07:20:17;;;;;;;628.73;565.43;;;;;;;9.24;100.00;93783.75;5069776;28;20178;-75
2022/11/18 07:22:42;;;;;;;882.07;782.93;;;;;;;9.27;100.00;93764.88;5066198;28;20579;-75
2022/11/18 07:25:08;;;;;;;192.50;174.30;;;;;;;9.34;100.00;93776.88;5063500;28;20214;-73
2022/11/18 07:27:33;;;;;;;45.57;17.63;;;;;;;9.30;100.00;93781.00;5064131;28;20166;-74
2022/11/18 07:29:59;;;;;;;137.57;125.40;;;;;;;9.39;100.00;93787.50;5067497;28;20182;-74
2022/11/18 07:32:24;;;;;;;47.93;15.40;;;;;;;9.54;100.00;93779.13;5082003;28;20201;-74
2022/11/18 07:34:50;;;;;;;60.27;15.07;;;;;;;9.65;100.00;93780.16;5089804;28;20264;-74
2022/11/18 07:37:15;;;;;;;54.07;14.70;;;;;;;9.66;100.00;93761.53;5089804;28;20178;-73
2022/11/18 07:39:40;;;;;;;53.70;14.93;;;;;;;9.79;100.00;93777.03;5089750;28;20252;-75
2022/11/18 07:42:08;;;;;;;44.87;14.67;;;;;;;9.75;100.00;93783.81;5072168;28;20628;-74
2022/11/18 07:44:33;;;;;;;41.03;17.00;;;;;;;9.72;100.00;93780.81;5069841;28;20228;-74
2022/11/18 07:46:58;;;;;;;35.10;15.07;;;;;;;9.90;100.00;93772.78;5070908;28;20182;-74
2022/11/18 07:49:24;;;;;;;42.40;16.13;;;;;;;10.10;100.00;93778.44;5072808;28;20639;-74
2022/11/18 07:51:49;;;;;;;39.37;16.60;;;;;;;10.25;100.00;93770.06;5072694;28;20217;-72
2022/11/18 07:54:18;;;;;;;41.43;17.10;;;;;;;10.35;100.00;93753.66;5072071;28;20265;-72
2022/11/18 07:56:43;;;;;;;42.40;15.23;;;;;;;10.49;100.00;93754.97;5072441;28;20209;-72
2022/11/18 07:59:09;;;;;;;39.40;15.47;;;;;;;10.71;100.00;93787.47;5072843;28;20214;-72
2022/11/18 08:01:34;;;;;;;44.27;15.57;;;;;;;10.72;100.00;93798.78;5073118;28;20178;-73
2022/11/18 08:04:10;;;;;;;38.77;15.77;;;;;;;10.63;100.00;93808.09;5071906;28;20190;-74
2022/11/18 08:06:36;;;;;;;29.87;14.13;;;;;;;10.64;100.00;93810.47;5076044;28;20181;-74
2022/11/18 08:09:03;;;;;;;40.97;16.33;;;;;;;10.58;100.00;93820.13;5090947;28;20186;-74
2022/11/18 08:11:29;;;;;;;39.37;16.13;;;;;;;10.58;100.00;93816.69;5090705;28;20228;-74
2022/11/18 08:13:54;;;;;;;62.00;19.27;;;;;;;10.29;100.00;93821.16;5089905;28;20428;-74
2022/11/18 08:16:22;;;;;;;39.23;16.57;;;;;;;10.16;100.00;93792.47;5090906;28;20178;-74
2022/11/18 08:18:48;;;;;;;35.43;16.20;;;;;;;10.31;100.00;93805.13;5073071;28;20609;-74
2022/11/18 08:21:16;;;;;;;43.03;14.77;;;;;;;10.18;100.00;93779.94;5092737;28;20170;-74
2022/11/18 08:23:42;;;;;;;40.97;16.03;;;;;;;10.29;100.00;93794.06;5092575;28;20212;-74
2022/11/18 08:26:10;;;;;;;51.63;17.53;;;;;;;10.23;100.00;93793.16;5092678;28;20281;-74
2022/11/18 08:28:36;;;;;;;54.33;17.37;;;;;;;10.22;100.00;93788.94;5092477;28;20182;-74
2022/11/18 08:31:13;;;;;;;57.60;19.80;;;;;;;10.21;100.00;93768.91;5092500;28;20747;-74
2022/11/18 08:33:39;;;;;;;43.97;17.37;;;;;;;10.20;100.00;93788.38;5092374;28;20177;-74
2022/11/18 08:36:11;;;;;;;43.17;19.20;;;;;;;10.14;100.00;93771.66;5092509;28;20185;-74
2022/11/18 08:38:36;;;;;;;44.87;17.93;;;;;;;10.18;100.00;93751.81;5092212;28;20189;-72
2022/11/18 08:41:02;;;;;;;52.97;21.30;;;;;;;10.33;100.00;93756.53;5092227;28;20531;-72
2022/11/18 08:43:28;;;;;;;52.83;19.73;;;;;;;10.35;100.00;93758.94;5092350;28;20184;-72
2022/11/18 08:45:53;;;;;;;45.73;20.73;;;;;;;10.58;100.00;93748.28;5092103;28;20178;-72
2022/11/18 08:48:19;;;;;;;47.30;19.33;;;;;;;10.77;100.00;93757.53;5092187;28;20192;-72
2022/11/18 08:50:44;;;;;;;70.07;20.33;;;;;;;10.94;100.00;93757.53;5091956;28;20193;-72
2022/11/18 08:53:09;;;;;;;63.43;20.93;;;;;;;10.88;100.00;93748.78;5092159;28;20178;-72
2022/11/18 08:55:35;;;;;;;51.13;20.53;;;;;;;10.78;100.00;93726.75;5092036;28;20201;-72
2022/11/18 08:58:00;;;;;;;54.13;20.43;;;;;;;10.68;100.00;93729.22;5091119;28;20177;-72
2022/11/18 09:00:25;;;;;;;57.77;20.93;;;;;;;10.70;100.00;93719.25;5091747;28;20181;-72
2022/11/18 09:02:51;;;;;;;63.90;20.67;;;;;;;10.84;100.00;93700.25;5091585;28;20265;-72
2022/11/18 09:05:16;;;;;;;52.33;20.63;;;;;;;11.13;100.00;93708.06;5091597;28;20177;-72
2022/11/18 09:07:41;;;;;;;65.63;22.93;;;;;;;11.24;100.00;93709.81;5091729;28;20178;-72
2022/11/18 09:10:07;;;;;;;64.43;22.37;;;;;;;11.32;100.00;93710.19;5091221;28;20666;-73
2022/11/18 09:12:33;;;;;;;51.97;19.20;;;;;;;11.60;100.00;93719.75;5091451;28;20177;-73
2022/11/18 09:14:58;;;;;;;51.40;20.10;;;;;;;11.82;99.46;93709.25;5091603;28;20241;-73
2022/11/18 09:17:23;;;;;;;54.20;19.10;;;;;;;11.97;97.29;93712.03;5073245;28;20181;-73
2022/11/18 09:19:49;;;;;;;46.10;18.13;;;;;;;11.97;97.49;93713.88;5091269;28;20201;-72
2022/11/18 09:22:14;;;;;;;46.93;17.67;;;;;;;12.28;97.76;93699.94;5091556;28;20173;-73
2022/11/18 09:24:40;;;;;;;40.77;17.20;;;;;;;12.80;97.81;93696.69;5091461;28;20169;-72
2022/11/18 09:27:06;;;;;;;39.40;18.03;;;;;;;12.91;92.27;93710.78;5091441;28;20181;-73
2022/11/18 09:29:31;;;;;;;42.30;18.13;;;;;;;13.01;93.34;93703.72;5091359;28;20185;-73
2022/11/18 09:32:00;;;;;;;51.57;18.13;;;;;;;13.44;93.50;93694.78;5091311;28;20197;-74
2022/11/18 09:34:26;;;;;;;39.43;18.27;;;;;;;13.52;91.04;93656.47;5091294;28;20178;-74
2022/11/18 09:36:54;;;;;;;39.03;18.57;;;;;;;13.58;88.76;93676.56;5091448;28;20545;-74
2022/11/18 09:39:20;;;;;;;44.77;19.60;;;;;;;13.38;90.20;93682.59;5076042;28;20183;-74
2022/11/18 09:42:13;;;;;;;45.83;20.70;;;;;;;13.19;91.84;93661.06;5078038;28;20198;-75
2022/11/18 09:45:00;;;;;;;40.70;18.00;;;;;;;13.14;90.85;93639.91;5078899;28;20186;-74
2022/11/18 09:47:33;;;;;;;35.87;15.47;;;;;;;13.30;91.21;93650.56;5077303;28;20173;-74
2022/11/18 09:50:03;;;;;;;33.67;16.40;;;;;;;13.58;89.68;93642.19;5070904;28;20186;-75
2022/11/18 09:52:37;;;;;;;40.37;18.70;;;;;;;13.68;87.72;93654.66;5070567;28;20202;-75
2022/11/18 09:55:11;;;;;;;35.53;16.47;;;;;;;13.65;86.93;93624.28;5064877;28;20249;-75
2022/11/18 09:57:41;;;;;;;41.30;17.80;;;;;;;13.89;87.69;93643.91;5064719;28;20170;-75
2022/11/18 10:00:15;;;;;;;36.70;17.23;;;;;;;14.05;86.70;93636.78;5062573;28;20670;-75
2022/11/18 10:03:03;;;;;;;40.30;17.43;;;;;;;14.11;85.79;93637.59;5070472;28;20231;-75
2022/11/18 10:05:41;;;;;;;33.27;16.53;;;;;;;14.08;84.21;93632.84;5070936;28;20201;-75
2022/11/18 10:08:22;;;;;;;38.07;18.30;;;;;;;13.95;86.05;93586.50;5078155;28;20173;-75
2022/11/18 10:11:00;;;;;;;34.67;16.87;;;;;;;14.12;84.73;93616.16;5089444;28;20734;-75
2022/11/18 10:13:28;;;;;;;37.30;17.97;;;;;;;14.17;84.00;93642.66;5068741;28;20204;-74
2022/11/18 10:16:12;;;;;;;40.63;19.70;;;;;;;14.27;84.96;93615.41;5068921;28;20208;-75
2022/11/18 10:18:42;;;;;;;40.20;17.97;;;;;;;14.43;84.93;93634.75;5071041;28;20213;-74
2022/11/18 10:21:27;;;;;;;31.57;15.40;;;;;;;14.39;82.99;93629.19;5062427;28;20233;-75
2022/11/18 10:24:00;;;;;;;33.13;14.87;;;;;;;14.39;82.10;93613.31;5063921;28;20170;-75
2022/11/18 10:26:34;;;;;;;36.93;16.70;;;;;;;14.48;81.03;93622.31;5068965;28;20281;-76
2022/11/18 10:28:59;;;;;;;29.10;15.97;;;;;;;14.48;81.20;93608.28;5070746;28;20675;-74
2022/11/18 10:31:25;;;;;;;40.80;16.30;;;;;;;14.49;81.32;93564.84;5070379;28;20198;-75
2022/11/18 10:34:00;;;;;;;32.37;16.10;;;;;;;14.80;81.70;93605.31;5070688;28;20178;-76
2022/11/18 10:36:32;;;;;;;38.30;17.60;;;;;;;14.72;82.33;93580.16;5070651;28;20659;-74
2022/11/18 10:39:15;;;;;;;44.10;17.17;;;;;;;14.79;80.14;93587.88;5070517;28;20178;-75
2022/11/18 10:41:47;;;;;;;40.67;18.80;;;;;;;14.93;79.91;93594.97;5067026;28;20183;-74
2022/11/18 10:44:40;;;;;;;34.90;16.50;;;;;;;15.00;79.53;93582.25;5069725;28;20643;-74
2022/11/18 10:47:15;;;;;;;30.87;14.07;;;;;;;15.09;78.99;93588.56;5066966;28;20193;-74
2022/11/18 10:49:41;;;;;;;26.33;14.03;;;;;;;15.13;78.73;93582.75;5070259;28;20690;-74
2022/11/18 10:52:12;;;;;;;31.03;15.27;;;;;;;15.19;78.38;93581.66;5070043;28;20281;-75
2022/11/18 10:54:38;;;;;;;35.23;14.57;;;;;;;15.05;77.37;93578.75;5070349;28;20239;-74
2022/11/18 10:57:22;;;;;;;28.63;12.50;;;;;;;15.05;77.44;93568.97;5070429;28;20214;-75
2022/11/18 10:59:56;;;;;;;26.57;12.40;;;;;;;15.07;78.18;93563.41;5070199;28;20193;-74
2022/11/18 11:02:33;;;;;;;26.60;13.33;;;;;;;15.03;78.25;93572.97;5070038;28;20174;-74
2022/11/18 11:05:14;;;;;;;22.33;13.10;;;;;;;15.05;78.29;93553.06;5069259;28;20182;-76
2022/11/18 11:07:40;;;;;;;30.83;14.67;;;;;;;15.26;76.50;93569.69;5070017;28;20174;-74
2022/11/18 11:10:08;;;;;;;30.37;14.67;;;;;;;15.20;76.81;93573.44;5069963;28;20633;-75
2022/11/18 11:12:46;;;;;;;29.80;15.00;;;;;;;15.22;77.48;93558.03;5069875;28;20209;-75
2022/11/18 11:15:17;;;;;;;37.23;16.20;;;;;;;15.23;78.33;93554.31;5069930;28;20177;-75
2022/11/18 11:18:40;;;;;;;36.43;18.03;;;;;;;15.30;78.34;93551.41;5069848;28;20186;-76
2022/11/18 11:20:35;;;;;;;39.37;16.97;;;;;;;15.31;78.72;93539.69;5069512;28;20182;-75
2022/11/18 11:23:01;;;;;;;35.57;17.60;;;;;;;15.50;78.63;93543.31;5073617;28;20178;-75
2022/11/18 11:25:42;;;;;;;36.17;19.17;;;;;;;15.48;78.36;93522.38;5073523;28;20216;-75
2022/11/18 11:28:24;;;;;;;43.93;20.27;;;;;;;15.70;77.45;93531.84;5072412;28;20691;-75
2022/11/18 11:31:07;;;;;;;38.20;19.23;;;;;;;15.76;77.24;93528.09;5071559;28;20232;-75
2022/11/18 11:33:40;;;;;;;35.93;18.37;;;;;;;15.76;77.53;93533.41;5071983;28;20716;-75
2022/11/18 11:36:34;;;;;;;35.60;17.60;;;;;;;15.65;77.03;93531.91;5071989;28;20673;-75
2022/11/18 11:39:22;;;;;;;38.47;17.67;;;;;;;15.61;77.47;93515.72;5078747;28;20682;-75